createdAt,value
2023-05-11T00:01:47.673Z,56.7
2023-05-11T00:03:46.348Z,56.8
2023-05-11T00:05:46.365Z,56.1
2023-05-11T00:07:46.770Z,56.2
2023-05-11T00:09:50.645Z,56
2023-05-11T00:11:50.822Z,56.4
2023-05-11T00:13:46.302Z,57.7
2023-05-11T00:15:00.043Z,57.7
2023-05-11T00:17:46.347Z,56.6
2023-05-11T00:19:46.334Z,56.4
2023-05-11T00:21:46.318Z,56.7
2023-05-11T00:24:01.959Z,56.7
2023-05-11T00:24:04.982Z,57.7
2023-05-11T00:25:46.536Z,58.7
2023-05-11T00:27:50.629Z,58
2023-05-11T00:29:46.347Z,58.9
2023-05-11T00:31:47.667Z,61.1
2023-05-11T00:33:46.433Z,58.8
2023-05-11T00:35:46.252Z,58.1
2023-05-11T00:37:46.406Z,59.2
2023-05-11T00:39:46.309Z,58.6
2023-05-11T00:41:46.337Z,60
2023-05-11T00:43:46.359Z,58.6
2023-05-11T00:45:46.278Z,58.8
2023-05-11T00:47:46.351Z,59.3
2023-05-11T00:49:46.249Z,59.2
2023-05-11T00:51:46.235Z,59.6
2023-05-11T00:53:46.200Z,62
2023-05-11T00:55:46.195Z,64.2
2023-05-11T00:57:46.286Z,62.6
2023-05-11T00:59:46.225Z,62.5
2023-05-11T01:01:46.239Z,64.8
2023-05-11T01:03:46.339Z,64.4
2023-05-11T01:05:46.398Z,65.3
2023-05-11T01:07:46.542Z,62.4
2023-05-11T01:09:46.235Z,62.5
2023-05-11T01:11:46.206Z,63.7
2023-05-11T01:13:47.562Z,63.8
2023-05-11T01:15:46.227Z,64.3
2023-05-11T01:17:46.268Z,63.1
2023-05-11T01:19:46.288Z,64
2023-05-11T01:21:46.217Z,63.2
2023-05-11T01:23:47.749Z,64.5
2023-05-11T01:25:46.250Z,62.9
2023-05-11T01:27:50.536Z,62.7
2023-05-11T01:29:50.651Z,63.2
2023-05-11T01:31:46.605Z,65.3
2023-05-11T01:33:46.258Z,67.2
2023-05-11T01:35:46.207Z,67.7
2023-05-11T01:37:46.182Z,64
2023-05-11T01:39:46.160Z,68.2
2023-05-11T01:41:46.232Z,66.4
2023-05-11T01:43:48.845Z,65.4
2023-05-11T01:45:46.417Z,64.7
2023-05-11T01:47:46.221Z,65.6
2023-05-11T01:49:46.143Z,65.2
2023-05-11T01:51:46.127Z,65.8
2023-05-11T01:53:46.213Z,67.3
2023-05-11T01:55:46.181Z,67
2023-05-11T01:57:46.231Z,65.3
2023-05-11T01:59:46.104Z,65.2
2023-05-11T02:01:46.261Z,65.3
2023-05-11T02:03:46.219Z,65.1
2023-05-11T02:05:46.272Z,66.2
2023-05-11T02:07:46.213Z,65.5
2023-05-11T02:09:46.252Z,65
2023-05-11T02:11:46.208Z,65.3
2023-05-11T02:13:46.088Z,66.5
2023-05-11T02:15:46.158Z,67.5
2023-05-11T02:17:46.339Z,65.3
2023-05-11T02:19:46.334Z,66
2023-05-11T02:21:47.084Z,65.4
2023-05-11T02:23:46.088Z,65.7
2023-05-11T02:25:46.120Z,68.8
2023-05-11T02:27:46.106Z,66
2023-05-11T02:29:46.164Z,67.2
2023-05-11T02:31:46.279Z,69.8
2023-05-11T02:33:46.127Z,70.4
2023-05-11T02:35:46.109Z,68.2
2023-05-11T02:37:46.101Z,67.8
2023-05-11T02:39:46.092Z,68.2
2023-05-11T02:41:46.075Z,71.9
2023-05-11T02:43:46.121Z,71.2
2023-05-11T02:45:46.083Z,69.4
2023-05-11T02:47:46.104Z,67.8
2023-05-11T02:49:46.256Z,68.2
2023-05-11T02:51:46.089Z,72
2023-05-11T02:53:46.108Z,70.7
2023-05-11T02:55:47.539Z,68.7
2023-05-11T02:57:46.066Z,70.2
2023-05-11T02:59:46.082Z,72.8
2023-05-11T03:01:46.189Z,73.3
2023-05-11T03:03:46.219Z,73.9
2023-05-11T03:05:46.030Z,73.8
2023-05-11T03:07:46.082Z,73.2
2023-05-11T03:09:46.051Z,73.5
2023-05-11T03:11:46.048Z,72.3
2023-05-11T03:13:46.078Z,71.5
2023-05-11T03:15:46.091Z,69.9
2023-05-11T03:17:46.191Z,69.6
2023-05-11T03:19:46.066Z,69.4
2023-05-11T03:21:46.065Z,69.3
2023-05-11T03:23:46.077Z,69.2
2023-05-11T03:25:46.144Z,71
2023-05-11T03:27:46.007Z,73.6
2023-05-11T03:29:46.087Z,74.7
2023-05-11T03:31:46.526Z,75
2023-05-11T03:33:47.099Z,74.6
2023-05-11T03:35:46.030Z,73.8
2023-05-11T03:37:46.094Z,71.8
2023-05-11T03:39:47.444Z,73
2023-05-11T03:41:48.966Z,73.9
2023-05-11T03:43:46.045Z,74.2
2023-05-11T03:45:46.065Z,75.8
2023-05-11T03:47:46.089Z,75.1
2023-05-11T03:49:47.072Z,75.5
2023-05-11T03:51:46.059Z,73
2023-05-11T03:53:45.982Z,75.2
2023-05-11T03:55:46.028Z,75.3
2023-05-11T03:57:46.013Z,75.2
2023-05-11T03:59:45.991Z,76.4
2023-05-11T04:01:46.039Z,74.9
2023-05-11T04:03:47.436Z,74.7
2023-05-11T04:05:46.018Z,74.6
2023-05-11T04:07:45.956Z,72.4
2023-05-11T04:09:46.032Z,72.3
2023-05-11T04:11:46.099Z,74.9
2023-05-11T04:13:46.020Z,75.7
2023-05-11T04:15:45.990Z,75.9
2023-05-11T04:17:46.060Z,76.7
2023-05-11T04:19:45.957Z,75.6
2023-05-11T04:21:45.964Z,76.1
2023-05-11T04:23:46.020Z,76.6
2023-05-11T04:25:46.102Z,75.1
2023-05-11T04:27:45.992Z,73.7
2023-05-11T04:29:46.018Z,73
2023-05-11T04:31:46.051Z,74.1
2023-05-11T04:33:45.942Z,75.1
2023-05-11T04:35:45.927Z,75
2023-05-11T04:37:45.939Z,76.5
2023-05-11T04:39:46.039Z,75.5
2023-05-11T04:41:45.935Z,76.6
2023-05-11T04:43:46.003Z,77.4
2023-05-11T04:45:45.917Z,76.7
2023-05-11T04:47:48.448Z,77.1
2023-05-11T04:49:46.059Z,77.4
2023-05-11T04:51:46.104Z,75.7
2023-05-11T04:53:46.002Z,77.8
2023-05-11T04:55:45.923Z,77.7
2023-05-11T04:57:46.000Z,77.5
2023-05-11T04:59:46.087Z,76.6
2023-05-11T05:01:45.979Z,77.8
2023-05-11T05:03:45.960Z,75.7
2023-05-11T05:05:45.897Z,76.4
2023-05-11T05:07:46.069Z,76.8
2023-05-11T05:09:45.937Z,74.5
2023-05-11T05:11:45.957Z,75.1
2023-05-11T05:13:45.901Z,75.6
2023-05-11T05:15:45.938Z,75
2023-05-11T05:17:45.929Z,75.7
2023-05-11T05:19:45.913Z,75.6
2023-05-11T05:21:45.886Z,76.3
2023-05-11T05:23:45.870Z,75.6
2023-05-11T05:25:45.906Z,75.1
2023-05-11T05:27:45.871Z,74.7
2023-05-11T05:29:45.893Z,74.1
2023-05-11T05:31:45.888Z,75.4
2023-05-11T05:33:45.920Z,74.6
2023-05-11T05:35:45.904Z,75.6
2023-05-11T05:37:45.898Z,76.5
2023-05-11T05:39:47.072Z,77.1
2023-05-11T05:41:45.923Z,76.1
2023-05-11T05:43:45.873Z,75.3
2023-05-11T05:45:45.864Z,74.8
2023-05-11T05:47:46.104Z,76.8
2023-05-11T05:49:45.949Z,75.1
2023-05-11T05:51:45.947Z,74.4
2023-05-11T05:53:45.861Z,75.4
2023-05-11T05:55:45.859Z,74.3
2023-05-11T05:57:45.814Z,74.8
2023-05-11T05:59:45.824Z,74.6
2023-05-11T06:01:46.942Z,76
2023-05-11T06:03:47.248Z,76.6
2023-05-11T06:05:45.850Z,77.4
2023-05-11T06:07:51.703Z,77.8
2023-05-11T06:09:45.967Z,77.7
2023-05-11T06:11:46.083Z,76.8
2023-05-11T06:13:45.995Z,76.2
2023-05-11T06:15:45.874Z,78.4
2023-05-11T06:17:46.010Z,78.6
2023-05-11T06:19:45.895Z,75.8
2023-05-11T06:21:45.923Z,75.5
2023-05-11T06:23:45.844Z,75
2023-05-11T06:25:45.911Z,75
2023-05-11T06:27:45.836Z,77.2
2023-05-11T06:29:45.915Z,75.5
2023-05-11T06:31:45.951Z,77.1
2023-05-11T06:33:46.031Z,78.2
2023-05-11T06:35:45.807Z,78.6
2023-05-11T06:37:47.296Z,78.3
2023-05-11T06:39:46.055Z,77.3
2023-05-11T06:41:45.860Z,76.6
2023-05-11T06:43:45.877Z,75.9
2023-05-11T06:45:45.852Z,75.5
2023-05-11T06:47:45.867Z,75.1
2023-05-11T06:49:45.801Z,75.7
2023-05-11T06:51:45.756Z,75.5
2023-05-11T06:53:45.786Z,75
2023-05-11T06:55:45.802Z,74.6
2023-05-11T06:57:45.786Z,74.8
2023-05-11T06:59:45.835Z,74.7
2023-05-11T07:01:45.927Z,75.1
2023-05-11T07:03:45.772Z,74.6
2023-05-11T07:05:45.797Z,74.7
2023-05-11T07:07:45.764Z,76.3
2023-05-11T07:09:45.852Z,76
2023-05-11T07:11:47.127Z,77.3
2023-05-11T07:13:45.839Z,76.1
2023-05-11T07:15:45.752Z,75.9
2023-05-11T07:17:47.155Z,75.3
2023-05-11T07:19:45.752Z,74.9
2023-05-11T07:21:45.737Z,74.9
2023-05-11T07:23:45.747Z,77.1
2023-05-11T07:25:45.714Z,75.7
2023-05-11T07:27:45.736Z,75
2023-05-11T07:29:45.790Z,74.9
2023-05-11T07:31:45.983Z,75
2023-05-11T07:33:45.745Z,74.9
2023-05-11T07:35:45.746Z,77.1
2023-05-11T07:37:45.869Z,78.7
2023-05-11T07:39:45.754Z,78.4
2023-05-11T07:41:47.057Z,77.6
2023-05-11T07:43:45.932Z,78.7
2023-05-11T07:45:45.833Z,78.8
2023-05-11T07:47:45.815Z,77.4
2023-05-11T07:49:48.489Z,76.2
2023-05-11T07:51:45.935Z,75.9
2023-05-11T07:53:45.834Z,75.6
2023-05-11T07:55:45.703Z,75.3
2023-05-11T07:57:48.285Z,75.3
2023-05-11T07:59:45.776Z,75.1
2023-05-11T08:01:45.731Z,75.3
2023-05-11T08:03:45.745Z,74.9
2023-05-11T08:05:45.722Z,76.6
2023-05-11T08:07:45.732Z,75.4
2023-05-11T08:09:45.711Z,75.6
2023-05-11T08:11:45.680Z,77.6
2023-05-11T08:13:45.774Z,76.5
2023-05-11T08:15:45.762Z,76.6
2023-05-11T08:17:45.892Z,78
2023-05-11T08:19:45.727Z,77
2023-05-11T08:21:45.887Z,76
2023-05-11T08:23:45.813Z,76.3
2023-05-11T08:25:45.716Z,75.5
2023-05-11T08:27:45.793Z,75.2
2023-05-11T08:29:45.773Z,75.4
2023-05-11T08:31:45.673Z,75.3
2023-05-11T08:33:45.815Z,75.2
2023-05-11T08:35:45.741Z,75.1
2023-05-11T08:37:45.701Z,74.9
2023-05-11T08:39:47.049Z,75
2023-05-11T08:41:45.688Z,75.2
2023-05-11T08:43:45.696Z,77.2
2023-05-11T08:45:45.704Z,75.5
2023-05-11T08:47:45.711Z,75.1
2023-05-11T08:49:45.642Z,75.2
2023-05-11T08:51:47.090Z,75.3
2023-05-11T08:53:47.280Z,75.3
2023-05-11T08:55:45.660Z,75.7
2023-05-11T08:57:45.657Z,75.9
2023-05-11T08:59:48.218Z,77.1
2023-05-11T09:01:46.056Z,76
2023-05-11T09:03:45.666Z,77.4
2023-05-11T09:05:45.651Z,76.3
2023-05-11T09:07:47.067Z,75.8
2023-05-11T09:09:45.634Z,75.6
2023-05-11T09:11:45.648Z,75.6
2023-05-11T09:13:45.669Z,75.5
2023-05-11T09:15:45.601Z,75.3
2023-05-11T09:17:45.627Z,75.6
2023-05-11T09:19:45.602Z,76.9
2023-05-11T09:21:45.795Z,77.3
2023-05-11T09:23:45.669Z,76
2023-05-11T09:25:45.668Z,75.8
2023-05-11T09:27:45.594Z,76.3
2023-05-11T09:29:51.761Z,76.7
2023-05-11T09:31:45.614Z,75.9
2023-05-11T09:33:45.611Z,75.8
2023-05-11T09:35:45.643Z,75.7
2023-05-11T09:37:45.588Z,76.2
2023-05-11T09:40:12.922Z,75.6
2023-05-11T09:41:45.656Z,75.6
2023-05-11T09:43:45.728Z,75.5
2023-05-11T09:45:48.453Z,75.6
2023-05-11T09:47:47.638Z,75.5
2023-05-11T09:49:45.823Z,75.5
2023-05-11T09:51:45.617Z,76.1
2023-05-11T09:53:45.733Z,75.7
2023-05-11T09:55:45.691Z,75.6
2023-05-11T09:57:45.633Z,76.2
2023-05-11T09:59:45.591Z,75.7
2023-05-11T10:01:45.728Z,75.6
2023-05-11T10:03:45.790Z,75.7
2023-05-11T10:05:45.571Z,75.5
2023-05-11T10:07:45.834Z,75.4
2023-05-11T10:09:45.641Z,75.4
2023-05-11T10:11:45.760Z,76.5
2023-05-11T10:13:45.635Z,77.3
2023-05-11T10:15:45.746Z,76.5
2023-05-11T10:17:49.804Z,75.8
2023-05-11T10:19:45.594Z,75.6
2023-05-11T10:21:45.624Z,75.8
2023-05-11T10:23:45.819Z,75.4
2023-05-11T10:25:45.552Z,75.3
2023-05-11T10:27:45.813Z,75.3
2023-05-11T10:29:45.711Z,75.2
2023-05-11T10:31:45.579Z,75.1
2023-05-11T10:33:47.247Z,75.1
2023-05-11T10:35:46.524Z,75.5
2023-05-11T10:37:45.673Z,75.7
2023-05-11T10:39:47.190Z,74.9
2023-05-11T10:41:45.557Z,74.9
2023-05-11T10:43:45.576Z,74.7
2023-05-11T10:45:45.848Z,75.9
2023-05-11T10:47:46.836Z,74.9
2023-05-11T10:49:45.766Z,75.4
2023-05-11T10:51:45.681Z,75.7
2023-05-11T10:53:48.088Z,76
2023-05-11T10:55:46.971Z,76
2023-05-11T10:57:45.533Z,75
2023-05-11T10:59:45.520Z,74.5
2023-05-11T11:01:45.616Z,74.4
2023-05-11T11:03:45.517Z,74.6
2023-05-11T11:05:45.623Z,74.9
2023-05-11T11:07:45.654Z,75.2
2023-05-11T11:09:46.744Z,74.2
2023-05-11T11:11:45.552Z,74.5
2023-05-11T11:13:45.618Z,74
2023-05-11T11:15:45.522Z,73.8
2023-05-11T11:17:49.766Z,73.7
2023-05-11T11:19:45.604Z,74.4
2023-05-11T11:21:45.600Z,74.6
2023-05-11T11:23:45.621Z,75.6
2023-05-11T11:25:45.487Z,75.2
2023-05-11T11:27:45.678Z,74.3
2023-05-11T11:29:45.490Z,73.8
2023-05-11T11:31:45.575Z,75
2023-05-11T11:33:45.567Z,74.4
2023-05-11T11:35:45.652Z,75.1
2023-05-11T11:38:08.088Z,75.3
2023-05-11T11:39:45.635Z,74.1
2023-05-11T11:41:45.463Z,74
2023-05-11T11:43:45.524Z,75.2
2023-05-11T11:45:45.581Z,75.3
2023-05-11T11:47:45.538Z,74.3
2023-05-11T11:49:45.596Z,74.4
2023-05-11T11:51:45.654Z,74.1
2023-05-11T11:53:45.485Z,73.5
2023-05-11T11:55:46.661Z,73.9
2023-05-11T11:57:45.450Z,74.1
2023-05-11T11:59:48.362Z,73.3
2023-05-11T12:01:47.070Z,73.5
2023-05-11T12:03:53.558Z,73.1
2023-05-11T12:05:45.569Z,72.6
2023-05-11T12:07:45.687Z,71.9
2023-05-11T12:09:53.326Z,70.7
2023-05-11T12:11:45.612Z,70.4
2023-05-11T12:13:45.471Z,69.2
2023-05-11T12:15:45.607Z,68.1
2023-05-11T12:17:51.236Z,66.3
2023-05-11T12:19:45.623Z,66.6
2023-05-11T12:21:45.530Z,64.3
2023-05-11T12:23:45.639Z,62.4
2023-05-11T12:25:46.817Z,63.7
2023-05-11T12:27:45.581Z,63.6
2023-05-11T12:29:48.134Z,61.6
2023-05-11T12:31:45.527Z,60.8
2023-05-11T12:33:45.461Z,60.1
2023-05-11T12:35:45.555Z,57.5
2023-05-11T12:37:45.541Z,56.3
2023-05-11T12:39:45.491Z,54
2023-05-11T12:41:45.385Z,55
2023-05-11T12:43:45.426Z,52.6
2023-05-11T12:45:45.472Z,48.8
2023-05-11T12:47:48.321Z,49.1
2023-05-11T12:49:45.614Z,49.9
2023-05-11T12:51:45.692Z,50.1
2023-05-11T12:53:45.454Z,45.5
2023-05-11T12:55:45.634Z,47
2023-05-11T12:57:45.497Z,46.7
2023-05-11T12:59:46.933Z,47.7
2023-05-11T13:01:45.408Z,45.1
2023-05-11T13:03:45.585Z,43.9
2023-05-11T13:05:55.896Z,43.6
2023-05-11T13:07:54.442Z,46.5
2023-05-11T13:09:46.657Z,43.5
2023-05-11T13:11:45.400Z,44.8
2023-05-11T13:13:45.462Z,45.4
2023-05-11T13:15:45.607Z,44.7
2023-05-11T13:17:53.237Z,45.5
2023-05-11T13:19:45.527Z,47.2
2023-05-11T13:21:47.930Z,47.1
2023-05-11T13:23:45.456Z,47.9
2023-05-11T13:25:45.491Z,48.1
2023-05-11T13:27:45.373Z,46.8
2023-05-11T13:29:46.268Z,47.4
2023-05-11T13:31:45.556Z,47.8
2023-05-11T13:33:45.426Z,48.6
2023-05-11T13:35:46.461Z,48
2023-05-11T13:37:45.474Z,46.7
2023-05-11T13:39:45.359Z,46.6
2023-05-11T13:41:46.760Z,47.3
2023-05-11T13:43:45.324Z,47.5
2023-05-11T13:45:45.383Z,47.9
2023-05-11T13:47:45.988Z,49
2023-05-11T13:49:45.457Z,49.2
2023-05-11T13:51:45.510Z,49
2023-05-11T13:53:45.407Z,48.9
2023-05-11T13:55:45.347Z,48.4
2023-05-11T13:57:45.578Z,48.6
2023-05-11T13:59:45.337Z,46.2
2023-05-11T14:01:49.740Z,46.6
2023-05-11T14:03:47.933Z,48
2023-05-11T14:05:45.350Z,47.3
2023-05-11T14:07:48.071Z,47.8
2023-05-11T14:09:45.383Z,47.8
2023-05-11T14:11:45.356Z,47.2
2023-05-11T14:15:46.521Z,46.8
2023-05-11T14:17:45.552Z,46.3
2023-05-11T14:19:47.609Z,44.5
2023-05-11T14:21:45.520Z,45.9
2023-05-11T14:23:57.966Z,44.8
2023-05-11T14:25:45.317Z,46.2
2023-05-11T14:28:03.144Z,43.9
2023-05-11T14:29:49.624Z,45.3
2023-05-11T14:31:45.471Z,45.5
2023-05-11T14:33:49.638Z,45.3
2023-05-11T14:35:45.363Z,45.4
2023-05-11T14:37:46.917Z,44
2023-05-11T14:39:46.831Z,44.1
2023-05-11T14:41:45.306Z,44.5
2023-05-11T14:43:46.522Z,45.1
2023-05-11T14:45:45.310Z,44
2023-05-11T14:47:45.493Z,45.1
2023-05-11T14:49:45.427Z,44
2023-05-11T14:51:45.315Z,43.5
2023-05-11T14:53:45.405Z,43
2023-05-11T14:55:47.924Z,42.9
2023-05-11T14:57:45.297Z,43.4
2023-05-11T14:59:58.174Z,43.5
2023-05-11T15:01:45.493Z,44.2
2023-05-11T15:03:45.360Z,41.9
2023-05-11T15:05:45.463Z,40.5
2023-05-11T15:07:45.355Z,41.5
2023-05-11T15:09:45.422Z,42.5
2023-05-11T15:11:45.460Z,41.1
2023-05-11T15:13:45.381Z,39
2023-05-11T15:15:45.370Z,38.9
2023-05-11T15:17:45.368Z,41.3
2023-05-11T15:19:45.422Z,41.3
2023-05-11T15:21:45.304Z,40.5
2023-05-11T15:23:45.379Z,39.7
2023-05-11T15:25:45.640Z,39.5
2023-05-11T15:27:45.256Z,41.2
2023-05-11T15:29:45.207Z,39.6
2023-05-11T15:31:45.382Z,39.5
2023-05-11T15:33:45.270Z,40.9
2023-05-11T15:35:45.326Z,38.3
2023-05-11T15:37:45.361Z,39.4
2023-05-11T15:39:45.319Z,37.6
2023-05-11T15:41:45.384Z,39.9
2023-05-11T15:43:45.261Z,39.3
2023-05-11T15:45:45.746Z,38.8
2023-05-11T15:47:45.358Z,38.6
2023-05-11T15:49:45.279Z,38.3
2023-05-11T15:51:46.572Z,38.7
2023-05-11T15:53:45.266Z,37
2023-05-11T15:55:46.444Z,38.1
2023-05-11T15:57:45.240Z,36.6
2023-05-11T15:59:45.399Z,37.2
2023-05-11T16:01:45.365Z,37.7
2023-05-11T16:03:45.246Z,36.2
2023-05-11T16:05:45.411Z,36.1
2023-05-11T16:07:45.299Z,35.8
2023-05-11T16:09:45.330Z,37.9
2023-05-11T16:11:45.422Z,38.3
2023-05-11T16:13:46.412Z,36.1
2023-05-11T16:15:45.291Z,35.8
2023-05-11T16:17:45.232Z,37.5
2023-05-11T16:19:45.256Z,37.3
2023-05-11T16:21:45.186Z,37.7
2023-05-11T16:23:45.243Z,37.1
2023-05-11T16:25:45.291Z,37.8
2023-05-11T16:27:45.267Z,37.6
2023-05-11T16:29:45.185Z,38.8
2023-05-11T16:31:45.346Z,36.5
2023-05-11T16:33:45.489Z,36.2
2023-05-11T16:35:45.252Z,36.9
2023-05-11T16:37:45.195Z,35.1
2023-05-11T16:39:45.263Z,36.2
2023-05-11T16:41:45.171Z,36.5
2023-05-11T16:43:45.343Z,36.9
2023-05-11T16:45:46.543Z,37.9
2023-05-11T16:47:46.636Z,38.7
2023-05-11T16:49:45.156Z,38.5
2023-05-11T16:51:45.144Z,38.8
2023-05-11T16:53:45.244Z,38.4
2023-05-11T16:55:45.234Z,39.5
2023-05-11T16:57:45.189Z,39.6
2023-05-11T16:59:45.231Z,38.4
2023-05-11T17:01:45.334Z,37.8
2023-05-11T17:03:45.234Z,37.3
2023-05-11T17:05:45.219Z,34.6
2023-05-11T17:07:45.168Z,36.3
2023-05-11T17:09:45.181Z,35.3
2023-05-11T17:11:45.102Z,35.3
2023-05-11T17:13:45.076Z,35.6
2023-05-11T17:15:45.214Z,36.2
2023-05-11T17:17:45.136Z,38
2023-05-11T17:19:45.202Z,39.4
2023-05-11T17:21:45.322Z,38
2023-05-11T17:23:45.168Z,37.4
2023-05-11T17:25:45.304Z,36.6
2023-05-11T17:27:45.300Z,37.3
2023-05-11T17:29:45.211Z,36.2
2023-05-11T17:31:45.256Z,37.2
2023-05-11T17:33:45.396Z,37.9
2023-05-11T17:35:45.213Z,38.5
2023-05-11T17:37:45.117Z,36.4
2023-05-11T17:39:47.173Z,37.4
2023-05-11T17:41:45.257Z,36.7
2023-05-11T17:43:45.154Z,37.8
2023-05-11T17:45:45.204Z,39.3
2023-05-11T17:49:45.342Z,37.5
2023-05-11T17:51:45.272Z,40
2023-05-11T17:53:45.131Z,37.9
2023-05-11T17:55:45.142Z,37.9
2023-05-11T17:57:45.153Z,37.9
2023-05-11T17:59:45.244Z,38.5
2023-05-11T18:01:45.228Z,37.2
2023-05-11T18:03:45.167Z,37.7
2023-05-11T18:05:48.374Z,37.6
2023-05-11T18:07:50.962Z,36.7
2023-05-11T18:09:45.248Z,36.3
2023-05-11T18:11:45.097Z,37.5
2023-05-11T18:13:45.698Z,37.3
2023-05-11T18:15:45.217Z,34.3
2023-05-11T18:17:45.223Z,34.8
2023-05-11T18:19:45.102Z,33.7
2023-05-11T18:21:45.166Z,34.3
2023-05-11T18:23:45.374Z,35.3
2023-05-11T18:25:45.088Z,36.8
2023-05-11T18:29:19.457Z,37
2023-05-11T18:30:06.240Z,33.2
2023-05-11T18:49:14.618Z,36
2023-05-11T18:50:20.127Z,36.7
2023-05-11T18:52:38.938Z,36.9
2023-05-11T18:54:06.000Z,36.9
2023-05-11T18:56:22.470Z,36.3
2023-05-11T22:44:34.303Z,43.1
2023-05-11T22:44:53.672Z,42.8
2023-05-11T22:46:53.782Z,42.5
2023-05-11T22:48:53.826Z,42.6
2023-05-11T22:50:55.248Z,42.3
2023-05-11T22:52:53.770Z,41.8
2023-05-11T22:54:53.698Z,42.2
2023-05-11T22:56:53.772Z,42.5
2023-05-11T22:58:53.733Z,43.8
2023-05-11T23:00:54.812Z,43.6
2023-05-11T23:02:53.790Z,43.2
2023-05-11T23:04:53.696Z,44
2023-05-11T23:06:53.627Z,44.1
2023-05-11T23:08:53.638Z,43.7
2023-05-11T23:10:53.667Z,44
2023-05-11T23:12:53.922Z,43.1
2023-05-11T23:14:53.656Z,43.8
2023-05-11T23:16:53.757Z,44.6
2023-05-11T23:18:53.854Z,44.3
2023-05-11T23:20:53.707Z,44.3
2023-05-11T23:22:53.653Z,44.3
2023-05-11T23:24:53.772Z,44.5
2023-05-11T23:26:53.674Z,45.6
2023-05-11T23:28:53.731Z,46
2023-05-11T23:30:53.775Z,45.4
2023-05-11T23:32:53.804Z,45.5
2023-05-11T23:34:53.694Z,45.6
2023-05-11T23:36:53.691Z,46.3
2023-05-11T23:38:53.637Z,47.2
2023-05-11T23:40:53.788Z,47.2
2023-05-11T23:42:53.816Z,48.1
2023-05-11T23:44:53.671Z,47.7
2023-05-11T23:46:53.836Z,48.8
2023-05-11T23:48:53.926Z,47.8
2023-05-11T23:50:53.619Z,49.2
2023-05-11T23:52:53.713Z,48.5
2023-05-11T23:54:53.720Z,48.6
2023-05-11T23:56:53.730Z,48.8
2023-05-11T23:58:53.600Z,49.1
